createdAt,value
2022-08-27T00:02:09.601Z,99.90
2022-08-27T00:04:38.498Z,99.90
2022-08-27T00:07:07.402Z,99.90
2022-08-27T00:09:36.340Z,99.90
2022-08-27T00:12:05.807Z,99.90
2022-08-27T00:14:34.129Z,99.90
2022-08-27T00:17:05.651Z,99.90
2022-08-27T00:19:33.895Z,99.90
2022-08-27T00:22:02.037Z,99.90
2022-08-27T00:24:30.194Z,99.90
2022-08-27T00:26:58.912Z,99.90
2022-08-27T00:29:27.597Z,99.90
2022-08-27T00:31:59.995Z,99.90
2022-08-27T00:34:30.024Z,99.90
2022-08-27T00:36:58.220Z,99.90
2022-08-27T00:39:26.617Z,99.90
2022-08-27T00:41:54.860Z,99.90
2022-08-27T00:44:23.086Z,99.90
2022-08-27T00:46:55.255Z,99.90
2022-08-27T00:49:27.923Z,99.90
2022-08-27T00:52:01.388Z,99.90
2022-08-27T00:54:30.188Z,99.90
2022-08-27T00:57:00.756Z,99.90
2022-08-27T00:59:31.236Z,99.90
2022-08-27T01:04:48.522Z,99.90
2022-08-27T01:07:18.963Z,99.90
2022-08-27T01:09:50.084Z,99.90
2022-08-27T01:12:18.556Z,99.90
2022-08-27T01:14:47.860Z,99.90
2022-08-27T01:17:17.002Z,99.90
2022-08-27T01:19:50.246Z,99.90
2022-08-27T01:22:31.200Z,99.90
2022-08-27T01:25:03.321Z,99.90
2022-08-27T01:27:32.727Z,99.90
2022-08-27T01:30:01.297Z,99.90
2022-08-27T01:32:31.417Z,99.90
2022-08-27T01:35:01.021Z,99.90
2022-08-27T01:37:29.908Z,99.90
2022-08-27T01:39:59.453Z,99.90
2022-08-27T01:42:33.628Z,99.90
2022-08-27T01:45:06.007Z,99.90
2022-08-27T01:47:35.540Z,99.90
2022-08-27T01:50:05.567Z,99.90
2022-08-27T01:52:33.829Z,99.90
2022-08-27T01:55:02.071Z,99.90
2022-08-27T01:57:32.566Z,99.90
2022-08-27T02:00:01.075Z,99.90
2022-08-27T02:02:29.346Z,99.90
2022-08-27T02:04:57.669Z,99.90
2022-08-27T02:07:25.881Z,99.90
2022-08-27T02:09:54.119Z,99.90
2022-08-27T02:12:22.310Z,99.90
2022-08-27T02:14:51.909Z,99.90
2022-08-27T02:17:20.148Z,99.90
2022-08-27T02:19:48.360Z,99.90
2022-08-27T02:22:17.039Z,99.90
2022-08-27T02:24:45.188Z,99.90
2022-08-27T02:27:14.205Z,99.90
2022-08-27T02:29:49.718Z,99.90
2022-08-27T02:32:22.792Z,99.90
2022-08-27T02:35:01.463Z,99.90
2022-08-27T02:37:29.965Z,99.90
2022-08-27T02:39:58.446Z,99.90
2022-08-27T02:42:26.729Z,99.90
2022-08-27T02:44:55.263Z,99.90
2022-08-27T02:47:25.070Z,99.90
2022-08-27T02:49:53.396Z,99.90
2022-08-27T02:52:24.884Z,99.90
2022-08-27T02:54:53.761Z,99.90
2022-08-27T02:57:22.449Z,99.90
2022-08-27T02:59:50.992Z,99.90
2022-08-27T03:02:19.715Z,99.90
2022-08-27T03:04:49.956Z,99.90
2022-08-27T03:07:19.757Z,99.90
2022-08-27T03:09:48.028Z,99.90
2022-08-27T03:12:16.811Z,99.90
2022-08-27T03:14:46.067Z,99.90
2022-08-27T03:17:31.799Z,99.90
2022-08-27T03:20:02.156Z,99.90
2022-08-27T03:22:30.342Z,99.90
2022-08-27T03:24:58.467Z,99.90
2022-08-27T03:27:26.688Z,99.90
2022-08-27T03:29:55.041Z,99.90
2022-08-27T03:32:23.311Z,99.90
2022-08-27T03:34:51.613Z,99.90
2022-08-27T03:37:21.437Z,99.90
2022-08-27T03:39:49.730Z,99.90
2022-08-27T03:42:17.999Z,99.90
2022-08-27T03:44:46.240Z,99.90
2022-08-27T03:47:14.505Z,99.90
2022-08-27T03:49:42.971Z,99.90
2022-08-27T03:52:11.495Z,99.90
2022-08-27T03:54:41.772Z,99.90
2022-08-27T03:57:11.249Z,99.90
2022-08-27T03:59:39.583Z,99.90
2022-08-27T04:02:07.939Z,99.90
2022-08-27T04:04:36.219Z,99.90
2022-08-27T04:07:04.832Z,99.90
2022-08-27T04:09:33.087Z,99.90
2022-08-27T04:12:03.106Z,99.90
2022-08-27T04:14:31.317Z,99.90
2022-08-27T04:16:59.569Z,99.90
2022-08-27T04:19:30.321Z,99.90
2022-08-27T04:22:02.883Z,99.90
2022-08-27T04:24:32.419Z,99.90
2022-08-27T04:27:02.819Z,99.90
2022-08-27T04:29:31.805Z,99.90
2022-08-27T04:32:01.146Z,99.90
2022-08-27T04:34:29.486Z,99.90
2022-08-27T04:36:58.724Z,99.90
2022-08-27T04:39:28.222Z,99.90
2022-08-27T04:41:59.470Z,99.90
2022-08-27T04:44:31.319Z,99.90
2022-08-27T04:47:01.940Z,99.90
2022-08-27T04:49:31.197Z,99.90
2022-08-27T04:52:01.507Z,99.90
2022-08-27T04:54:33.073Z,99.90
2022-08-27T04:57:02.875Z,99.90
2022-08-27T04:59:33.280Z,99.90
2022-08-27T05:02:04.605Z,99.90
2022-08-27T05:04:33.406Z,99.90
2022-08-27T05:07:02.233Z,99.90
2022-08-27T05:09:30.524Z,99.90
2022-08-27T05:11:58.735Z,99.90
2022-08-27T05:14:30.101Z,99.90
2022-08-27T05:17:00.259Z,99.90
2022-08-27T05:19:29.036Z,99.90
2022-08-27T05:21:57.221Z,99.90
2022-08-27T05:24:26.010Z,99.90
2022-08-27T05:26:54.569Z,99.90
2022-08-27T05:29:22.873Z,99.90
2022-08-27T05:31:51.128Z,99.90
2022-08-27T05:34:25.719Z,99.90
2022-08-27T05:36:55.812Z,99.90
2022-08-27T05:39:24.284Z,99.90
2022-08-27T05:41:53.788Z,99.90
2022-08-27T05:44:40.898Z,99.90
2022-08-27T05:47:10.430Z,99.90
2022-08-27T05:49:40.113Z,99.90
2022-08-27T05:52:11.073Z,99.90
2022-08-27T05:54:40.277Z,99.90
2022-08-27T05:57:09.057Z,99.90
2022-08-27T05:59:55.106Z,99.90
2022-08-27T06:02:23.576Z,99.90
2022-08-27T06:04:53.653Z,99.90
2022-08-27T06:07:22.251Z,99.90
2022-08-27T06:09:50.587Z,99.90
2022-08-27T06:12:18.772Z,99.90
2022-08-27T06:14:47.072Z,99.90
2022-08-27T06:17:15.239Z,99.90
2022-08-27T06:19:43.812Z,99.90
2022-08-27T06:22:13.532Z,99.90
2022-08-27T06:24:43.547Z,99.90
2022-08-27T06:27:14.964Z,99.90
2022-08-27T06:29:44.093Z,99.90
2022-08-27T06:32:12.886Z,99.90
2022-08-27T06:34:41.097Z,99.90
2022-08-27T06:37:09.856Z,99.90
2022-08-27T06:39:40.615Z,99.90
2022-08-27T06:42:13.302Z,99.90
2022-08-27T06:44:41.900Z,99.90
2022-08-27T06:47:10.418Z,99.90
2022-08-27T06:49:40.484Z,99.90
2022-08-27T06:52:09.306Z,99.90
2022-08-27T06:54:40.339Z,99.90
2022-08-27T06:57:08.871Z,99.90
2022-08-27T06:59:38.803Z,99.90
2022-08-27T07:02:08.670Z,99.90
2022-08-27T07:04:36.975Z,99.90
2022-08-27T07:07:06.031Z,99.90
2022-08-27T07:09:35.554Z,99.90
2022-08-27T07:12:06.561Z,99.90
2022-08-27T07:14:38.081Z,99.90
2022-08-27T07:17:10.812Z,99.90
2022-08-27T07:19:41.400Z,99.90
2022-08-27T07:22:10.446Z,99.90
2022-08-27T07:24:38.886Z,99.90
2022-08-27T07:27:09.397Z,99.90
2022-08-27T07:29:37.594Z,99.90
2022-08-27T07:32:06.523Z,99.90
2022-08-27T07:34:34.754Z,99.90
2022-08-27T07:37:02.940Z,99.90
2022-08-27T07:39:31.229Z,99.90
2022-08-27T07:42:16.728Z,99.90
2022-08-27T07:44:46.788Z,99.90
2022-08-27T07:47:14.975Z,99.90
2022-08-27T07:49:43.180Z,99.90
2022-08-27T07:52:11.873Z,99.90
2022-08-27T07:54:41.494Z,99.90
2022-08-27T07:57:10.219Z,99.90
2022-08-27T07:59:39.037Z,99.90
2022-08-27T08:02:08.840Z,99.90
2022-08-27T08:04:37.178Z,99.90
2022-08-27T08:07:05.335Z,99.90
2022-08-27T08:09:34.596Z,99.90
2022-08-27T08:12:02.808Z,99.90
2022-08-27T08:14:32.384Z,99.90
2022-08-27T08:17:02.547Z,99.90
2022-08-27T08:19:33.880Z,99.90
2022-08-27T08:22:05.497Z,99.90
2022-08-27T08:24:35.139Z,99.90
2022-08-27T08:27:07.068Z,99.90
2022-08-27T08:29:35.785Z,99.90
2022-08-27T08:32:04.303Z,99.90
2022-08-27T08:34:35.716Z,99.90
2022-08-27T08:37:04.940Z,99.90
2022-08-27T08:39:33.332Z,99.90
2022-08-27T08:42:04.372Z,99.90
2022-08-27T08:44:36.929Z,99.90
2022-08-27T08:47:10.108Z,99.90
2022-08-27T08:49:49.041Z,99.90
2022-08-27T08:52:30.763Z,99.90
2022-08-27T08:55:10.153Z,99.90
2022-08-27T08:57:42.045Z,99.90
2022-08-27T09:00:14.794Z,99.90
2022-08-27T09:02:50.542Z,99.90
2022-08-27T09:05:20.583Z,99.90
2022-08-27T09:08:28.619Z,99.90
2022-08-27T09:10:59.509Z,99.90
2022-08-27T09:13:32.537Z,99.90
2022-08-27T09:16:04.625Z,99.30
2022-08-27T09:21:10.367Z,97.70
2022-08-27T09:23:46.423Z,98.80
2022-08-27T09:26:27.128Z,96.50
2022-08-27T09:29:19.172Z,95.60
2022-08-27T09:31:58.278Z,95.00
2022-08-27T09:34:29.298Z,94.80
2022-08-27T09:37:05.871Z,95.30
2022-08-27T09:39:45.510Z,94.70
2022-08-27T09:42:26.717Z,94.50
2022-08-27T09:44:55.900Z,95.60
2022-08-27T09:47:24.616Z,95.50
2022-08-27T09:50:07.116Z,95.00
2022-08-27T09:52:40.219Z,95.60
2022-08-27T09:55:09.009Z,95.90
2022-08-27T09:57:41.862Z,95.00
2022-08-27T10:00:17.210Z,93.50
2022-08-27T10:02:53.504Z,93.70
2022-08-27T10:05:29.222Z,94.10
2022-08-27T10:08:03.203Z,94.50
2022-08-27T10:10:42.359Z,94.00
2022-08-27T10:13:16.548Z,94.20
2022-08-27T10:15:55.932Z,94.30
2022-08-27T10:18:32.552Z,94.10
2022-08-27T10:21:07.986Z,94.60
2022-08-27T10:23:43.190Z,93.90
2022-08-27T10:26:20.708Z,93.70
2022-08-27T10:29:01.478Z,94.00
2022-08-27T10:31:40.205Z,94.10
2022-08-27T10:34:25.918Z,94.00
2022-08-27T10:37:07.312Z,93.90
2022-08-27T10:39:51.036Z,91.90
2022-08-27T10:42:27.551Z,92.50
2022-08-27T10:45:05.568Z,92.10
2022-08-27T10:47:55.417Z,93.30
2022-08-27T10:50:29.718Z,92.30
2022-08-27T10:53:03.600Z,92.60
2022-08-27T10:55:35.264Z,92.40
2022-08-27T10:58:27.684Z,91.60
2022-08-27T11:01:03.858Z,91.50
2022-08-27T11:03:37.501Z,90.90
2022-08-27T11:06:17.332Z,91.50
2022-08-27T11:08:52.018Z,90.70
2022-08-27T11:12:10.468Z,90.50
2022-08-27T11:14:25.758Z,90.20
2022-08-27T11:16:58.346Z,90.70
2022-08-27T11:19:44.448Z,90.60
2022-08-27T11:22:25.978Z,90.30
2022-08-27T11:24:58.737Z,90.40
2022-08-27T11:27:32.629Z,90.80
2022-08-27T11:30:06.806Z,90.10
2022-08-27T11:32:46.901Z,90.00
2022-08-27T11:35:19.923Z,90.20
2022-08-27T11:38:12.378Z,88.00
2022-08-27T11:40:54.053Z,88.80
2022-08-27T11:43:26.065Z,89.10
2022-08-27T11:45:57.621Z,89.10
2022-08-27T11:48:28.092Z,90.00
2022-08-27T11:51:00.082Z,88.10
2022-08-27T11:53:31.114Z,88.20
2022-08-27T11:56:10.936Z,87.20
2022-08-27T11:58:52.865Z,88.10
2022-08-27T12:01:27.567Z,88.30
2022-08-27T12:04:03.351Z,84.50
2022-08-27T12:06:43.049Z,81.50
2022-08-27T12:09:18.078Z,82.00
2022-08-27T12:11:56.855Z,79.20
2022-08-27T12:14:40.503Z,78.30
2022-08-27T12:17:18.025Z,79.80
2022-08-27T12:19:56.381Z,78.00
2022-08-27T12:22:56.376Z,77.40
2022-08-27T12:25:25.366Z,80.20
2022-08-27T12:27:58.903Z,82.30
2022-08-27T12:30:33.202Z,84.70
2022-08-27T12:33:10.213Z,82.40
2022-08-27T12:35:45.915Z,84.10
2022-08-27T12:38:18.763Z,84.20
2022-08-27T12:40:51.852Z,83.10
2022-08-27T12:43:24.742Z,84.50
2022-08-27T12:45:59.840Z,82.60
2022-08-27T12:48:30.865Z,82.00
2022-08-27T12:51:02.653Z,80.20
2022-08-27T12:53:42.882Z,78.30
2022-08-27T12:56:50.279Z,79.80
2022-08-27T12:59:56.879Z,80.20
2022-08-27T13:02:41.013Z,81.10
2022-08-27T13:05:12.128Z,81.20
2022-08-27T13:07:43.224Z,78.80
2022-08-27T13:10:15.948Z,79.40
2022-08-27T13:12:46.020Z,78.70
2022-08-27T13:15:17.224Z,79.30
2022-08-27T13:17:48.223Z,78.80
2022-08-27T13:20:21.499Z,79.00
2022-08-27T13:22:50.948Z,79.40
2022-08-27T13:25:25.420Z,82.10
2022-08-27T13:27:56.298Z,80.90
2022-08-27T13:30:36.277Z,81.30
2022-08-27T13:33:08.841Z,82.70
2022-08-27T13:35:37.777Z,82.60
2022-08-27T13:38:07.132Z,82.30
2022-08-27T13:40:37.717Z,82.60
2022-08-27T13:43:09.760Z,82.70
2022-08-27T13:45:40.472Z,83.80
2022-08-27T13:48:13.525Z,84.80
2022-08-27T13:50:50.504Z,82.90
2022-08-27T13:53:41.119Z,83.70
2022-08-27T13:56:09.601Z,84.40
2022-08-27T13:58:38.391Z,85.90
2022-08-27T14:01:12.049Z,86.30
2022-08-27T14:03:51.632Z,86.00
2022-08-27T14:06:35.490Z,87.40
2022-08-27T14:09:13.177Z,88.50
2022-08-27T14:11:41.484Z,89.20
2022-08-27T14:14:09.828Z,88.90
2022-08-27T14:16:39.755Z,89.10
2022-08-27T14:19:11.902Z,90.00
2022-08-27T14:21:42.651Z,90.60
2022-08-27T14:24:12.036Z,90.60
2022-08-27T14:26:40.634Z,89.80
2022-08-27T14:29:12.023Z,89.80
2022-08-27T14:31:40.790Z,90.00
2022-08-27T14:34:10.520Z,90.40
2022-08-27T14:36:40.811Z,90.40
2022-08-27T14:39:10.256Z,90.20
2022-08-27T14:41:39.115Z,90.20
2022-08-27T14:44:08.432Z,90.40
2022-08-27T14:46:42.896Z,90.10
2022-08-27T14:49:16.019Z,90.10
2022-08-27T14:51:46.796Z,89.40
2022-08-27T14:54:15.103Z,89.10
2022-08-27T14:56:43.411Z,89.30
2022-08-27T14:59:11.701Z,89.10
2022-08-27T15:01:40.413Z,89.70
2022-08-27T15:04:09.061Z,90.10
2022-08-27T15:06:38.767Z,90.70
2022-08-27T15:09:07.006Z,90.50
2022-08-27T15:11:38.496Z,91.20
2022-08-27T15:14:11.396Z,91.60
2022-08-27T15:16:42.411Z,91.90
2022-08-27T15:19:13.675Z,91.90
2022-08-27T15:21:45.968Z,92.10
2022-08-27T15:24:18.835Z,92.70
2022-08-27T15:26:47.508Z,92.90
2022-08-27T15:29:15.749Z,92.80
2022-08-27T15:31:44.588Z,93.20
2022-08-27T15:34:13.160Z,92.80
2022-08-27T15:36:43.019Z,93.10
2022-08-27T15:39:12.272Z,93.00
2022-08-27T15:42:11.439Z,93.00
2022-08-27T15:44:31.226Z,93.20
2022-08-27T15:46:59.668Z,93.60
2022-08-27T15:49:28.019Z,94.10
2022-08-27T15:51:59.602Z,94.20
2022-08-27T15:54:28.292Z,94.40
2022-08-27T15:56:56.471Z,94.60
2022-08-27T15:59:24.636Z,95.00
2022-08-27T16:01:53.375Z,95.30
2022-08-27T16:04:21.932Z,95.50
2022-08-27T16:06:50.464Z,96.20
2022-08-27T16:09:20.379Z,95.90
2022-08-27T16:11:48.695Z,96.20
2022-08-27T16:14:17.290Z,95.90
2022-08-27T16:16:47.411Z,96.10
2022-08-27T16:19:16.810Z,96.80
2022-08-27T16:21:45.517Z,96.50
2022-08-27T16:24:13.800Z,97.00
2022-08-27T16:26:43.600Z,97.00
2022-08-27T16:29:11.854Z,97.20
2022-08-27T16:31:40.065Z,97.30
2022-08-27T16:34:15.001Z,96.70
2022-08-27T16:36:43.433Z,97.20
2022-08-27T16:39:11.748Z,97.70
2022-08-27T16:41:40.027Z,97.50
2022-08-27T16:44:09.748Z,97.60
2022-08-27T16:46:38.138Z,97.60
2022-08-27T16:49:23.783Z,98.00
2022-08-27T16:51:52.382Z,97.90
2022-08-27T16:54:21.549Z,98.20
2022-08-27T16:56:49.784Z,98.40
2022-08-27T16:59:19.666Z,98.40
2022-08-27T17:01:51.277Z,98.80
2022-08-27T17:04:29.347Z,98.80
2022-08-27T17:06:59.567Z,99.20
2022-08-27T17:09:27.827Z,99.30
2022-08-27T17:11:58.337Z,99.60
2022-08-27T17:14:28.280Z,99.90
2022-08-27T17:16:56.671Z,99.90
2022-08-27T17:19:26.283Z,99.90
2022-08-27T17:21:55.291Z,99.90
2022-08-27T17:24:23.556Z,99.90
2022-08-27T17:26:51.813Z,99.90
2022-08-27T17:29:20.012Z,99.90
2022-08-27T17:31:50.016Z,99.90
2022-08-27T17:34:21.563Z,99.90
2022-08-27T17:36:49.846Z,99.90
2022-08-27T17:39:19.154Z,99.90
2022-08-27T17:41:50.824Z,99.90
2022-08-27T17:44:24.437Z,99.90
2022-08-27T17:46:56.185Z,99.90
2022-08-27T17:49:25.511Z,99.90
2022-08-27T17:51:59.088Z,99.90
2022-08-27T17:54:31.280Z,99.90
2022-08-27T17:57:00.142Z,99.90
2022-08-27T17:59:29.032Z,99.90
2022-08-27T18:01:58.868Z,99.90
2022-08-27T18:04:27.245Z,99.90
2022-08-27T18:06:55.305Z,99.90
2022-08-27T18:09:23.560Z,99.90
2022-08-27T18:11:53.005Z,99.90
2022-08-27T18:14:21.779Z,99.90
2022-08-27T18:16:50.137Z,99.90
2022-08-27T18:19:19.984Z,99.90
2022-08-27T18:21:48.218Z,99.90
2022-08-27T18:24:17.376Z,99.90
2022-08-27T18:26:48.496Z,99.90
2022-08-27T18:29:17.076Z,99.90
2022-08-27T18:31:45.527Z,99.90
2022-08-27T18:34:18.767Z,99.90
2022-08-27T18:36:50.307Z,99.90
2022-08-27T18:39:20.099Z,99.90
2022-08-27T18:41:48.396Z,99.90
2022-08-27T18:44:17.649Z,99.90
2022-08-27T18:46:46.426Z,99.90
2022-08-27T18:49:14.761Z,99.90
2022-08-27T18:51:47.155Z,99.90
2022-08-27T18:54:20.728Z,99.90
2022-08-27T18:56:49.428Z,99.90
2022-08-27T18:59:17.736Z,99.90
2022-08-27T19:01:46.453Z,99.90
2022-08-27T19:04:16.460Z,99.90
2022-08-27T19:06:44.701Z,99.90
2022-08-27T19:09:14.029Z,99.90
2022-08-27T19:11:43.760Z,99.90
2022-08-27T19:14:12.083Z,99.90
2022-08-27T19:16:44.369Z,99.90
2022-08-27T19:19:13.934Z,99.90
2022-08-27T19:21:42.948Z,99.90
2022-08-27T19:24:11.665Z,99.90
2022-08-27T19:26:40.541Z,99.90
2022-08-27T19:29:10.746Z,99.90
2022-08-27T19:31:39.302Z,99.90
2022-08-27T19:34:09.123Z,99.90
2022-08-27T19:36:41.291Z,99.90
2022-08-27T19:39:11.750Z,99.90
2022-08-27T19:41:40.243Z,99.90
2022-08-27T19:44:09.957Z,99.90
2022-08-27T19:46:38.399Z,99.90
2022-08-27T19:49:06.678Z,99.90
2022-08-27T19:51:34.906Z,99.90
2022-08-27T19:54:03.212Z,99.90
2022-08-27T19:56:32.864Z,99.90
2022-08-27T19:59:10.885Z,99.90
2022-08-27T20:01:52.766Z,99.90
2022-08-27T20:04:21.348Z,99.90
2022-08-27T20:06:49.995Z,99.90
2022-08-27T20:09:21.362Z,99.90
2022-08-27T20:11:50.705Z,99.90
2022-08-27T20:14:19.960Z,99.90
2022-08-27T20:16:50.080Z,99.90
2022-08-27T20:19:20.067Z,99.90
2022-08-27T20:21:48.352Z,99.90
2022-08-27T20:24:16.941Z,99.90
2022-08-27T20:26:45.491Z,99.90
2022-08-27T20:29:14.923Z,99.90
2022-08-27T20:31:47.542Z,99.90
2022-08-27T20:34:17.190Z,99.90
2022-08-27T20:36:45.619Z,99.90
2022-08-27T20:39:13.963Z,99.90
2022-08-27T20:41:42.414Z,99.90
2022-08-27T20:44:12.655Z,99.90
2022-08-27T20:46:48.920Z,99.90
2022-08-27T20:49:22.517Z,99.90
2022-08-27T20:51:51.319Z,99.90
2022-08-27T20:54:31.786Z,99.90
2022-08-27T20:57:00.089Z,99.90
2022-08-27T20:59:45.443Z,99.90
2022-08-27T21:02:16.859Z,99.90
2022-08-27T21:04:47.811Z,99.90
2022-08-27T21:07:17.372Z,99.90
2022-08-27T21:09:56.666Z,99.90
2022-08-27T21:12:25.971Z,99.90
2022-08-27T21:14:55.964Z,99.90
2022-08-27T21:17:25.110Z,99.90
2022-08-27T21:19:55.533Z,99.90
2022-08-27T21:22:24.624Z,99.90
2022-08-27T21:24:53.910Z,99.90
2022-08-27T21:27:22.992Z,99.90
2022-08-27T21:29:51.409Z,99.90
2022-08-27T21:32:19.744Z,99.90
2022-08-27T21:34:47.968Z,99.90
2022-08-27T21:37:19.532Z,99.90
2022-08-27T21:39:47.915Z,99.90
2022-08-27T21:42:16.715Z,99.90
2022-08-27T21:44:45.051Z,99.90
2022-08-27T21:47:13.385Z,99.90
2022-08-27T21:49:42.075Z,99.90
2022-08-27T21:52:10.619Z,99.90
2022-08-27T21:54:42.507Z,99.90
2022-08-27T21:57:14.089Z,99.90
2022-08-27T21:59:46.029Z,99.90
2022-08-27T22:02:36.209Z,99.90
2022-08-27T22:05:03.485Z,99.90
2022-08-27T22:07:31.713Z,99.90
2022-08-27T22:10:01.418Z,99.90
2022-08-27T22:12:29.635Z,99.90
2022-08-27T22:14:57.903Z,99.90
2022-08-27T22:17:26.062Z,99.90
2022-08-27T22:19:54.488Z,99.90
2022-08-27T22:22:22.755Z,99.90
2022-08-27T22:24:51.089Z,99.90
2022-08-27T22:27:22.222Z,99.90
2022-08-27T22:29:50.455Z,99.90
2022-08-27T22:32:18.707Z,99.90
2022-08-27T22:34:46.977Z,99.90
2022-08-27T22:37:15.243Z,99.90
2022-08-27T22:39:43.445Z,99.90
2022-08-27T22:42:13.021Z,99.90
2022-08-27T22:44:47.403Z,99.90
2022-08-27T22:47:15.873Z,99.90
2022-08-27T22:49:44.544Z,99.90
2022-08-27T22:52:13.258Z,99.90
2022-08-27T22:54:41.609Z,99.90
2022-08-27T22:57:10.422Z,99.90
2022-08-27T22:59:39.376Z,99.90
2022-08-27T23:02:10.947Z,99.90
2022-08-27T23:04:54.481Z,99.90
2022-08-27T23:07:23.997Z,99.90
2022-08-27T23:09:52.380Z,99.90
2022-08-27T23:12:22.006Z,99.90
2022-08-27T23:14:50.326Z,99.90
2022-08-27T23:17:20.564Z,99.90
2022-08-27T23:19:49.053Z,99.90
2022-08-27T23:22:17.368Z,99.90
2022-08-27T23:25:03.733Z,99.90
2022-08-27T23:27:32.405Z,99.90
2022-08-27T23:30:03.040Z,99.90
2022-08-27T23:32:33.046Z,99.90
2022-08-27T23:35:01.504Z,99.90
2022-08-27T23:37:29.860Z,99.90
2022-08-27T23:39:58.082Z,99.90
2022-08-27T23:42:27.874Z,99.90
2022-08-27T23:44:56.502Z,99.90
2022-08-27T23:47:24.709Z,99.90
2022-08-27T23:49:54.400Z,99.90
2022-08-27T23:52:22.713Z,99.90
2022-08-27T23:54:50.921Z,99.90
2022-08-27T23:57:19.141Z,99.90
2022-08-27T23:59:47.401Z,99.90
